Aviation Digital Data Service (ADDS)

Output produced by METARs form (0223 UTC 29 May 2022)
found at http://www.aviationweather.gov/metar/data/
 
Forecast for: PANC (ANCHORAGE INTL , AK, US)
Text: PANC 282320Z 2900/3006 24006KT P6SM SKC
Forecast period: 0000 UTC 29 May 2022 to 0600 UTC 30 May 2022
Forecast type: FROM: standard forecast or significant change
Winds: from the WSW (240 degrees) at 7 MPH (6 knots; 3.1 m/s)
Visibility: 6 or more miles (10+ km)
Clouds: clear skies
Weather: no significant weather forecast for this period